マカオ の空港の天気 - METARとTAF

マカオ国際空港 ( VMMC / MFM ) - マカオ タイパ島
飛行場実況気象(Metar)
観測時間01/20 10:00 CST (01/20 02:00 UTC)
風向・風速北 4m/s
視程3200m
天気現象もや
なし
気温20℃
湿度83%
気圧1020hPa
METARVMMC 200200Z 36007KT 3200 BR NSC 20/17 Q1020 NOSIG
過去の天気等 Google飛行場航空写真 Wunderground天気予報

過去48時間のMETAR

飛行場予報(TAF)
発表時間: 1/20 07:03 CST (1/19 23:03 UTC)
予報対象時間: 20日8時 CST ~ 21日14時 CST
風向・風速北北東 3m/s
視程7000m
少しの雲 雲底高度 760m
全天の4割程度の雲 雲底高度 1220m
20日8時 CST ~ 20日20時 CST に一時的に
視程3500m
天気現象もや
20日20時 CST ~ 20日23時 CST に徐々に
風向・風速北 8m/s
21日2時 CST ~ 21日11時 CST に一時的に
風向・風速北 10m/s 瞬間風速 15m/s
TAF VMMC 192303Z 2000/2106 02005KT 7000 FEW025 SCT040
TEMPO 2000/2012 3500 BR
BECMG 2012/2015 36015KT
TEMPO 2018/2103 36020G30KT